• Join FlightAware (Why Join?)
  • Login
  • US Flag 
10:43AM EDT


 

Airport Tracker/Info


-or-


 

Live Flight TrackerFlight Track Log ✈ EJA727 ✈ 27-Jun-2013 ✈ KBIV - KASE

Flight Track Log - Related Links

Times and Time Zones

All times are in EDT time to prevent confusion due to time zone crossing. See the EJA727 flight status page for this flight to view local times or setup timezone preferences in your user account.

Time Position Orientation Groundspeed Altitude Reporting Facility
EDT Latitude Longitude Course Direction KTS MPH feet Rate Location/Type
05:25PM 42.7131 -86.2242 248° West 220 253 4,500  Level Chicago Center
05:26PM 42.6878 -86.3150 249° West 247 284 8,700 2,700 Climbing Chicago Center
05:28PM 42.6614 -86.4131 250° West 272 313 10,200 1,860 Climbing Chicago Center
05:29PM 42.6258 -86.5300 248° West 331 381 12,600 2,280 Climbing Chicago Center
05:30PM 42.5072 -86.5819 198° South 391 450 15,000 2,100 Climbing Chicago Center
05:31PM 42.3964 -86.6069 189° South 402 463 17,000 2,700 Climbing Chicago Center
05:32PM 42.2864 -86.6328 190° South 387 445 20,700 2,160 Climbing Chicago Center
05:33PM 42.1736 -86.6619 191° South 407 468 21,500 1,080 Climbing Chicago Center
05:34PM 42.0639 -86.7339 206° Southwest 422 486 23,000 840 Climbing Chicago Center
05:35PM 42.0006 -86.8603 236° Southwest 430 495 23,300 840 Climbing Chicago Center
05:36PM 41.9892 -87.0119 264° West 414 476 24,800 1,560 Climbing Chicago Center
05:37PM 41.9767 -87.1956 265° West 416 479 26,600 1,500 Climbing Chicago Center
05:38PM 41.9675 -87.3472 265° West 414 476 27,900 660 Climbing Chicago Center
05:39PM 41.9539 -87.5003 263° West 417 480 28,000 900 Climbing Chicago Center
05:40PM 41.9203 -87.6542 254° West 448 516 29,800 960 Climbing Chicago Center
05:41PM 41.8336 -87.8156 234° Southwest 451 519 30,000 60 Climbing Chicago Center
05:42PM 41.7717 -87.9561 239° Southwest 447 514 30,000  Level Chicago Center
05:43PM 41.7486 -88.1097 259° West 429 494 30,000  Level Chicago Center
05:44PM 41.7406 -88.2644 266° West 423 487 30,000 480 Level Chicago Center
05:45PM 41.7294 -88.4483 265° West 421 484 31,100 960 Climbing Chicago Center
05:46PM 41.7206 -88.5983 266° West 414 476 32,100 720 Climbing Chicago Center
05:47PM 41.7111 -88.7517 265° West 416 479 32,700 420 Climbing Chicago Center
05:48PM 41.7008 -88.9047 265° West 417 480 33,000 240 Climbing Chicago Center
05:49PM 41.6903 -89.0597 265° West 419 482 33,200 360 Climbing Chicago Center
05:50PM 41.6792 -89.2444 265° West 420 483 33,800 540 Climbing Chicago Center
05:51PM 41.6692 -89.3967 265° West 416 479 34,400 600 Climbing Chicago Center
05:52PM 41.6597 -89.5503 265° West 412 474 35,100 660 Climbing Chicago Center
05:53PM 41.6478 -89.7006 264° West 408 470 35,800 660 Climbing Chicago Center
05:54PM 41.6375 -89.8497 265° West 405 466 36,500 660 Climbing Chicago Center
05:55PM 41.6267 -90.0011 265° West 409 471 37,200 720 Climbing Chicago Center
05:57PM 41.5983 -90.1797 258° West 415 478 38,000 360 Climbing Chicago Center
05:58PM 41.5819 -90.3361 262° West 434 499 38,000  Level Chicago Center
05:59PM 41.5719 -90.4889 265° West 420 483 38,000  Level Chicago Center
06:00PM 41.5606 -90.6481 265° West 420 483 38,000  Level Chicago Center
06:01PM 41.5497 -90.8019 265° West 420 483 38,000  Level Chicago Center
06:02PM 41.5378 -90.9569 264° West 423 487 38,000  Level Chicago Center
06:03PM 41.5239 -91.1450 264° West 425 489 38,000  Level Chicago Center
06:04PM 41.5136 -91.2978 265° West 426 490 38,000  Level Chicago Center
06:05PM 41.4978 -91.4900 264° West 430 495 38,000  Level Chicago Center
06:06PM 41.4858 -91.6464 264° West 428 493 38,000  Level Chicago Center
06:07PM 41.4728 -91.8044 264° West 431 496 38,000  Level Chicago Center
06:08PM 41.4572 -91.9917 264° West 428 493 38,000  Level Chicago Center
06:09PM 41.4439 -92.1483 264° West 429 494 38,000  Level Chicago Center
06:10PM 41.4311 -92.3094 264° West 434 499 38,000  Level Chicago Center
06:11PM 41.4161 -92.4889 264° West 434 499 38,000  Level Chicago Center
06:12PM 41.4022 -92.6467 263° West 433 498 38,000  Level Minneapolis Center
06:13PM 41.3886 -92.8042 263° West 433 498 38,000  Level Minneapolis Center
06:14PM 41.3736 -92.9622 263° West 435 501 38,000  Level Minneapolis Center
06:15PM 41.3594 -93.1203 263° West 435 501 38,000  Level Minneapolis Center
06:16PM 41.3417 -93.3100 263° West 436 502 38,000  Level Minneapolis Center
06:17PM 41.3264 -93.4675 263° West 435 501 38,000  Level Minneapolis Center
06:18PM 41.3128 -93.6222 263° West 430 495 38,000  Level Minneapolis Center
06:19PM 41.2986 -93.7800 263° West 433 498 38,000  Level Minneapolis Center
06:20PM 41.2822 -93.9400 262° West 438 504 38,000  Level Minneapolis Center
06:22PM 41.2619 -94.1308 262° West 439 505 38,000  Level Minneapolis Center
06:23PM 41.2472 -94.2819 263° West 440 506 38,000  Level Minneapolis Center
06:24PM 41.2300 -94.4428 262° West 440 506 38,000  Level Minneapolis Center
06:25PM 41.2097 -94.6364 262° West 440 506 38,000  Level Minneapolis Center
06:26PM 41.1922 -94.7983 262° West 442 509 38,000  Level Minneapolis Center
06:27PM 41.1739 -94.9614 262° West 444 511 38,000  Level Minneapolis Center
06:28PM 41.1553 -95.1233 261° West 444 511 38,000  Level Minneapolis Center
06:29PM 41.1369 -95.2856 262° West 443 510 38,000  Level Minneapolis Center
06:30PM 41.1181 -95.4533 262° West 455 524 38,000  Level Minneapolis Center
06:31PM 41.0981 -95.6172 261° West 452 520 38,000  Level Minneapolis Center
06:32PM 41.0742 -95.8133 261° West 447 514 38,000  Level Minneapolis Center
06:33PM 41.0556 -95.9806 262° West 451 519 38,000  Level Minneapolis Center
06:34PM 41.0356 -96.1469 261° West 452 520 38,000  Level Minneapolis Center
06:35PM 41.0169 -96.3125 262° West 452 520 38,000  Level Minneapolis Center
06:36PM 40.9961 -96.4783 261° West 455 524 38,000  Level Minneapolis Center
06:37PM 40.9761 -96.6431 261° West 453 521 38,000  Level Minneapolis Center
06:38PM 40.9550 -96.8078 260° West 454 522 38,000  Level Minneapolis Center
06:39PM 40.9344 -96.9725 261° West 455 524 38,000  Level Minneapolis Center
06:40PM 40.9089 -97.1689 260° West 453 521 38,000  Level Minneapolis Center
06:41PM 40.8883 -97.3344 261° West 456 525 38,000  Level Minneapolis Center
06:42PM 40.8653 -97.5056 260° West 454 522 38,000  Level Minneapolis Center
06:43PM 40.8433 -97.6722 260° West 458 527 38,000  Level Minneapolis Center
06:44PM 40.8214 -97.8372 260° West 457 526 38,000  Level Minneapolis Center
06:45PM 40.7972 -98.0019 259° West 456 525 38,000  Level Minneapolis Center
06:46PM 40.7761 -98.1686 261° West 458 527 38,000  Level Minneapolis Center
06:47PM 40.7481 -98.3686 260° West 459 528 38,000  Level Minneapolis Center
06:48PM 40.7236 -98.5369 259° West 463 533 38,000  Level Minneapolis Center
06:49PM 40.6997 -98.7050 259° West 463 533 38,000  Level Minneapolis Center
06:51PM 40.6764 -98.8739 260° West 464 534 38,000  Level Minneapolis Center
06:52PM 40.6517 -99.0419 259° West 464 534 38,000  Level Minneapolis Center
06:53PM 40.6275 -99.2094 259° West 463 533 38,000  Level Minneapolis Center
06:54PM 40.5978 -99.4117 259° West 466 536 38,000  Level Minneapolis Center
06:55PM 40.5722 -99.5800 259° West 468 539 38,000  Level Minneapolis Center
06:56PM 40.5428 -99.7817 259° West 467 537 38,000  Level Minneapolis Center
06:57PM 40.5169 -99.9503 259° West 470 541 38,000  Level Minneapolis Center
06:58PM 40.4903 -100.1189 258° West 470 541 38,000  Level Minneapolis Center
06:59PM 40.4639 -100.2881 258° West 471 542 38,000  Level Minneapolis Center
07:00PM 40.4386 -100.4561 259° West 471 542 38,000  Level Minneapolis Center
07:01PM 40.4028 -100.6592 257° West 471 542 38,000  Level Denver Center
07:02PM 40.3753 -100.8222 258° West 475 547 38,000  Level Denver Center
07:03PM 40.3456 -101.0125 258° West 475 547 38,000  Level Denver Center
07:04PM 40.3186 -101.1756 258° West 476 548 38,000  Level Denver Center
07:05PM 40.2917 -101.3375 258° West 475 547 38,000  Level Denver Center
07:06PM 40.2603 -101.5261 258° West 474 545 38,000  Level Denver Center
07:07PM 40.2331 -101.6867 258° West 472 543 38,000  Level Denver Center
07:08PM 40.2003 -101.8761 257° West 477 549 38,000  Level Denver Center
07:09PM 40.1728 -102.0375 257° West 476 548 38,000  Level Denver Center
07:10PM 40.1394 -102.2272 257° West 477 549 38,000  Level Denver Center
07:11PM 40.1106 -102.3894 257° West 479 551 38,000  Level Denver Center
07:12PM 40.0822 -102.5525 257° West 480 552 38,000  Level Denver Center
07:14PM 40.0478 -102.7450 257° West 480 552 38,000  Level Denver Center
07:15PM 40.0164 -102.9150 256° West 483 556 38,000  Level Denver Center
07:16PM 39.9850 -103.0839 256° West 481 554 38,000  Level Denver Center
07:17PM 39.9542 -103.2542 257° West 483 556 38,000  Level Denver Center
07:18PM 39.9219 -103.4239 256° West 485 558 38,000  Level Denver Center
07:19PM 39.8836 -103.6264 256° West 481 554 38,000  Level Denver Center
07:20PM 39.8525 -103.7983 257° West 493 567 38,000  Level Denver Center
07:21PM 39.8197 -103.9669 256° West 482 555 38,000  Level Denver Center
07:22PM 39.7861 -104.1372 256° West 490 564 38,000  Level Denver Center
07:23PM 39.7539 -104.3025 256° West 476 548 38,000  Level Denver Center
07:24PM 39.7206 -104.4733 256° West 497 572 38,000  Level Denver Center
07:25PM 39.6903 -104.6706 259° West 463 533 38,000  Level Denver Center
07:26PM 39.6700 -104.8392 261° West 487 560 38,000  Level Denver Center
07:27PM 39.6508 -105.0097 262° West 471 542 38,000  Level Denver Center
07:28PM 39.6325 -105.1803 262° West 476 548 38,000 -1,020 Level Denver Center
07:29PM 39.6103 -105.3828 262° West 472 543 35,900 -2,280 Descending Denver Center
07:30PM 39.5919 -105.5458 262° West 460 529 33,300 -2,520 Descending Denver Center
07:31PM 39.5719 -105.7175 261° West 484 557 30,700 -2,520 Descending Denver Center
07:32PM 39.5558 -105.8886 263° West 478 550 28,100 -1,800 Descending Denver Center
07:33PM 39.5364 -106.0586 262° West 478 550 27,000 -1,680 Descending Denver Center
07:34PM 39.5544 -106.2364 278° West 477 549 24,700 -2,580 Descending Denver Center
07:35PM 39.5828 -106.3917 283° West 451 519 21,700 -2,280 Descending Denver Center
07:36PM 39.5861 -106.5578 272° West 441 507 20,000 -1,620 Descending Denver Center
07:37PM 39.5214 -106.7064 241° Southwest 424 488 18,400 -2,040 Descending Denver Center
07:38PM 39.4706 -106.8206 240° Southwest 389 448 15,800 -2,520 Descending Denver Center
07:39PM 39.4242 -106.9261 240° Southwest 359 413 13,300 -2,280 Descending Denver Center
07:40PM 39.3444 -106.9642 200° South 295 339 11,200 -1,920 Descending Denver Center
07:41PM 39.2950 -106.9186 145° Southeast 250 288 9,400 -1,500 Descending Denver Center
07:42PM 39.2506 -106.8833 148° Southeast 212 244 8,200 -1,200 Descending Denver Center
07:44PM 39.2167 -106.8667 176° South  Level FlightAware Approximate